createdAt,value
2018-06-10T00:00:42.325Z,14.63
2018-06-10T00:03:10.942Z,13.93
2018-06-10T00:05:39.527Z,12.87
2018-06-10T00:08:08.225Z,14.43
2018-06-10T00:10:37.474Z,13.70
2018-06-10T00:13:06.113Z,13.53
2018-06-10T00:15:34.759Z,14.77
2018-06-10T00:18:03.371Z,14.10
2018-06-10T00:20:32.028Z,12.93
2018-06-10T00:23:00.657Z,14.27
2018-06-10T00:25:29.379Z,15.70
2018-06-10T00:27:58.058Z,15.53
2018-06-10T00:30:26.665Z,15.90
2018-06-10T00:32:55.305Z,16.07
2018-06-10T00:35:24.024Z,16.17
2018-06-10T00:37:52.665Z,17.53
2018-06-10T00:40:21.385Z,16.93
2018-06-10T00:42:50.042Z,17.47
2018-06-10T00:45:18.741Z,17.63
2018-06-10T00:47:47.412Z,20.57
2018-06-10T00:50:16.097Z,16.93
2018-06-10T00:52:44.796Z,17.20
2018-06-10T00:55:13.451Z,17.50
2018-06-10T00:57:42.065Z,17.73
2018-06-10T01:00:10.714Z,18.00
2018-06-10T01:02:39.317Z,17.00
2018-06-10T01:05:07.913Z,16.50
2018-06-10T01:07:36.595Z,16.07
2018-06-10T01:10:05.287Z,17.77
2018-06-10T01:12:33.926Z,16.63
2018-06-10T01:15:02.561Z,18.47
2018-06-10T01:17:31.202Z,17.20
2018-06-10T01:19:59.866Z,16.90
2018-06-10T01:22:28.481Z,18.10
2018-06-10T01:24:57.098Z,18.70
2018-06-10T01:27:25.729Z,19.80
2018-06-10T01:29:54.374Z,20.53
2018-06-10T01:32:23.089Z,19.37
2018-06-10T01:34:51.685Z,20.40
2018-06-10T01:37:20.260Z,19.67
2018-06-10T01:39:48.831Z,19.40
2018-06-10T01:42:17.446Z,19.50
2018-06-10T01:44:46.353Z,19.27
2018-06-10T01:47:15.006Z,19.23
2018-06-10T01:49:43.628Z,20.00
2018-06-10T01:52:12.243Z,19.00
2018-06-10T01:54:40.877Z,19.80
2018-06-10T01:57:09.507Z,18.47
2018-06-10T01:59:38.091Z,19.10
2018-06-10T02:02:06.745Z,18.40
2018-06-10T02:04:35.365Z,19.10
2018-06-10T02:07:03.998Z,18.90
2018-06-10T02:09:32.609Z,18.93
2018-06-10T02:12:01.227Z,19.80
2018-06-10T02:14:36.050Z,21.87
2018-06-10T02:17:04.880Z,21.57
2018-06-10T02:19:33.466Z,19.60
2018-06-10T02:22:02.666Z,19.57
2018-06-10T02:24:32.245Z,19.43
2018-06-10T02:27:00.822Z,20.33
2018-06-10T02:29:29.460Z,21.10
2018-06-10T02:31:58.093Z,21.07
2018-06-10T02:34:26.685Z,20.87
2018-06-10T02:36:55.806Z,20.30
2018-06-10T02:39:24.737Z,20.33
2018-06-10T02:41:53.362Z,19.33
2018-06-10T02:44:21.997Z,20.53
2018-06-10T02:46:50.631Z,20.73
2018-06-10T02:49:19.216Z,19.73
2018-06-10T02:51:47.820Z,20.63
2018-06-10T02:54:16.444Z,23.17
2018-06-10T02:56:45.088Z,23.57
2018-06-10T02:59:13.784Z,22.80
2018-06-10T03:01:42.381Z,20.87
2018-06-10T03:04:10.976Z,19.40
2018-06-10T03:06:39.590Z,19.27
2018-06-10T03:09:08.331Z,16.30
2018-06-10T03:11:36.953Z,15.53
2018-06-10T03:14:05.622Z,14.70
2018-06-10T03:16:34.256Z,13.63
2018-06-10T03:19:02.888Z,14.10
2018-06-10T03:21:31.518Z,14.00
2018-06-10T03:24:00.139Z,14.17
2018-06-10T03:26:28.845Z,13.43
2018-06-10T03:28:57.660Z,13.57
2018-06-10T03:31:26.275Z,13.90
2018-06-10T03:33:54.880Z,12.47
2018-06-10T03:36:23.540Z,12.60
2018-06-10T03:38:52.133Z,13.90
2018-06-10T03:41:20.720Z,13.03
2018-06-10T03:43:49.365Z,14.50
2018-06-10T03:46:17.930Z,18.93
2018-06-10T03:48:46.559Z,19.17
2018-06-10T03:51:15.235Z,18.83
2018-06-10T03:53:43.784Z,18.60
2018-06-10T03:56:12.516Z,20.00
2018-06-10T03:58:41.124Z,20.13
2018-06-10T04:01:09.709Z,19.40
2018-06-10T04:03:38.301Z,18.67
2018-06-10T04:06:06.960Z,15.40
2018-06-10T04:08:35.609Z,15.97
2018-06-10T04:11:04.211Z,15.03
2018-06-10T04:13:32.850Z,13.93
2018-06-10T04:16:01.453Z,14.80
2018-06-10T04:18:30.054Z,13.27
2018-06-10T04:20:58.649Z,12.10
2018-06-10T04:23:27.277Z,12.40
2018-06-10T04:25:55.869Z,13.07
2018-06-10T04:28:25.424Z,12.60
2018-06-10T04:30:54.009Z,12.50
2018-06-10T04:33:22.644Z,11.97
2018-06-10T04:35:51.289Z,11.17
2018-06-10T04:38:19.889Z,11.07
2018-06-10T04:40:48.478Z,11.13
2018-06-10T04:43:17.095Z,11.63
2018-06-10T04:45:45.715Z,11.70
2018-06-10T04:48:14.330Z,11.17
2018-06-10T04:50:42.978Z,12.37
2018-06-10T04:53:11.666Z,13.67
2018-06-10T04:55:40.381Z,14.53
2018-06-10T04:58:09.046Z,13.83
2018-06-10T05:00:37.615Z,12.60
2018-06-10T05:03:06.332Z,12.60
2018-06-10T05:05:34.946Z,11.90
2018-06-10T05:08:03.585Z,16.50
2018-06-10T05:10:32.209Z,13.70
2018-06-10T05:13:00.824Z,12.40
2018-06-10T05:15:29.434Z,11.80
2018-06-10T05:17:58.017Z,11.20
2018-06-10T05:20:26.709Z,11.27
2018-06-10T05:22:55.310Z,12.07
2018-06-10T05:25:24.074Z,12.63
2018-06-10T05:27:52.781Z,11.70
2018-06-10T05:30:21.350Z,11.83
2018-06-10T05:32:50.132Z,11.73
2018-06-10T05:35:18.797Z,12.83
2018-06-10T05:37:47.417Z,11.40
2018-06-10T05:40:16.047Z,11.87
2018-06-10T05:42:44.740Z,11.00
2018-06-10T05:45:13.642Z,11.27
2018-06-10T05:47:42.237Z,11.43
2018-06-10T05:50:10.978Z,11.43
2018-06-10T05:52:39.673Z,11.30
2018-06-10T05:55:08.304Z,12.40
2018-06-10T05:57:37.006Z,12.33
2018-06-10T06:00:05.990Z,11.60
2018-06-10T06:02:34.648Z,14.17
2018-06-10T06:05:03.267Z,11.63
2018-06-10T06:07:32.035Z,12.17
2018-06-10T06:10:00.695Z,11.30
2018-06-10T06:12:29.342Z,11.60
2018-06-10T06:14:57.944Z,13.40
2018-06-10T06:17:26.638Z,12.87
2018-06-10T06:19:55.323Z,12.00
2018-06-10T06:22:23.967Z,13.23
2018-06-10T06:24:52.638Z,12.20
2018-06-10T06:27:21.342Z,12.60
2018-06-10T06:29:49.920Z,12.10
2018-06-10T06:32:18.607Z,13.10
2018-06-10T06:34:47.261Z,12.50
2018-06-10T06:37:15.881Z,11.60
2018-06-10T06:39:44.588Z,11.60
2018-06-10T06:42:13.232Z,11.57
2018-06-10T06:44:41.862Z,11.73
2018-06-10T06:47:10.545Z,11.40
2018-06-10T06:49:39.164Z,12.63
2018-06-10T06:52:07.814Z,10.90
2018-06-10T06:54:36.485Z,11.30
2018-06-10T06:57:05.166Z,10.60
2018-06-10T06:59:33.877Z,10.97
2018-06-10T07:02:02.594Z,9.87
2018-06-10T07:04:31.230Z,10.47
2018-06-10T07:06:59.895Z,11.73
2018-06-10T07:09:32.179Z,9.47
2018-06-10T07:12:00.971Z,12.47
2018-06-10T07:14:29.608Z,11.77
2018-06-10T07:16:59.596Z,10.80
2018-06-10T07:19:28.331Z,10.13
2018-06-10T07:21:57.079Z,9.93
2018-06-10T07:24:25.777Z,10.87
2018-06-10T07:26:54.432Z,10.57
2018-06-10T07:29:23.060Z,10.27
2018-06-10T07:31:52.744Z,11.13
2018-06-10T07:34:21.370Z,11.03
2018-06-10T07:36:50.077Z,11.10
2018-06-10T07:39:18.766Z,10.37
2018-06-10T07:41:47.420Z,8.53
2018-06-10T07:44:16.064Z,7.60
2018-06-10T07:46:44.724Z,6.93
2018-06-10T07:49:13.353Z,6.23
2018-06-10T07:51:41.954Z,6.60
2018-06-10T07:54:10.592Z,6.20
2018-06-10T07:56:39.182Z,5.47
2018-06-10T07:59:07.861Z,4.70
2018-06-10T08:01:36.538Z,5.77
2018-06-10T08:04:05.234Z,5.30
2018-06-10T08:06:33.890Z,5.50
2018-06-10T08:09:02.764Z,5.50
2018-06-10T08:11:31.448Z,5.47
2018-06-10T08:14:00.075Z,5.50
2018-06-10T08:16:28.739Z,6.20
2018-06-10T08:18:57.767Z,5.93
2018-06-10T08:21:26.455Z,4.70
2018-06-10T08:23:55.145Z,5.93
2018-06-10T08:26:24.609Z,5.03
2018-06-10T08:29:04.142Z,5.83
2018-06-10T08:31:32.890Z,6.30
2018-06-10T08:34:01.543Z,5.80
2018-06-10T08:36:32.076Z,6.10
2018-06-10T08:39:01.320Z,6.70
2018-06-10T08:41:31.748Z,6.27
2018-06-10T08:44:00.423Z,6.03
2018-06-10T08:46:29.174Z,6.53
2018-06-10T08:48:57.822Z,6.40
2018-06-10T08:51:28.123Z,6.13
2018-06-10T08:53:56.780Z,6.27
2018-06-10T08:56:26.854Z,6.27
2018-06-10T08:58:55.955Z,6.07
2018-06-10T09:01:24.905Z,6.00
2018-06-10T09:16:43.599Z,6.07
2018-06-10T09:19:12.207Z,5.97
2018-06-10T09:21:41.017Z,5.73
2018-06-10T09:24:10.157Z,5.50
2018-06-10T09:26:38.786Z,5.03
2018-06-10T09:29:07.494Z,5.47
2018-06-10T09:31:36.127Z,4.93
2018-06-10T09:34:04.882Z,4.30
2018-06-10T09:36:33.545Z,5.27
2018-06-10T09:39:02.350Z,5.20
2018-06-10T09:41:31.018Z,4.50
2018-06-10T09:43:59.693Z,4.77
2018-06-10T09:46:29.446Z,6.03
2018-06-10T09:48:58.257Z,5.23
2018-06-10T09:51:26.915Z,6.57
2018-06-10T09:53:55.992Z,5.57
2018-06-10T09:56:25.395Z,6.00
2018-06-10T09:58:54.305Z,4.90
2018-06-10T10:01:23.167Z,5.97
2018-06-10T10:03:51.847Z,5.20
2018-06-10T10:06:20.535Z,6.17
2018-06-10T10:08:49.188Z,5.87
2018-06-10T10:11:17.802Z,5.67
2018-06-10T10:13:46.445Z,5.85
2018-06-10T10:16:15.074Z,6.17
2018-06-10T10:18:45.811Z,6.33
2018-06-10T10:21:14.496Z,5.67
2018-06-10T10:23:43.132Z,5.87
2018-06-10T10:26:11.770Z,7.20
2018-06-10T10:28:40.380Z,6.70
2018-06-10T10:31:09.148Z,7.00
2018-06-10T10:33:37.749Z,6.43
2018-06-10T10:36:06.368Z,6.40
2018-06-10T10:38:35.091Z,6.67
2018-06-10T10:41:03.697Z,6.00
2018-06-10T10:43:32.318Z,6.43
2018-06-10T10:46:00.954Z,6.57
2018-06-10T10:48:29.560Z,5.67
2018-06-10T10:50:59.583Z,6.00
2018-06-10T10:53:28.228Z,5.77
2018-06-10T10:56:00.580Z,5.90
2018-06-10T10:58:29.257Z,5.33
2018-06-10T11:00:57.846Z,5.60
2018-06-10T11:03:33.245Z,5.47
2018-06-10T11:06:01.843Z,6.10
2018-06-10T11:08:31.138Z,6.30
2018-06-10T11:10:59.763Z,5.47
2018-06-10T11:13:28.396Z,5.00
2018-06-10T11:15:57.018Z,5.73
2018-06-10T11:18:25.646Z,5.97
2018-06-10T11:20:54.247Z,5.43
2018-06-10T11:23:25.216Z,5.53
2018-06-10T11:25:55.381Z,5.50
2018-06-10T11:28:24.525Z,5.70
2018-06-10T11:30:53.594Z,5.40
2018-06-10T11:33:22.926Z,5.87
2018-06-10T11:35:51.591Z,5.60
2018-06-10T11:38:20.221Z,5.57
2018-06-10T11:40:48.937Z,6.00
2018-06-10T11:43:17.537Z,5.77
2018-06-10T11:45:46.244Z,6.27
2018-06-10T11:48:14.822Z,5.33
2018-06-10T11:50:44.541Z,5.17
2018-06-10T11:53:13.137Z,5.63
2018-06-10T11:55:41.804Z,5.90
2018-06-10T11:58:10.452Z,5.50
2018-06-10T12:00:39.106Z,6.60
2018-06-10T12:03:07.732Z,6.67
2018-06-10T12:05:36.346Z,7.40
2018-06-10T12:08:05.166Z,7.50
2018-06-10T12:10:33.750Z,6.60
2018-06-10T12:13:02.443Z,8.37
2018-06-10T12:15:31.098Z,10.27
2018-06-10T12:17:59.683Z,8.07
2018-06-10T12:20:28.297Z,8.10
2018-06-10T12:22:57.128Z,8.53
2018-06-10T12:25:25.699Z,9.07
2018-06-10T12:27:54.333Z,9.30
2018-06-10T12:40:03.195Z,8.60
2018-06-10T12:42:31.926Z,7.80
2018-06-10T12:45:00.610Z,8.20
2018-06-10T12:47:29.277Z,7.83
2018-06-10T12:49:57.862Z,7.60
2018-06-10T12:52:26.460Z,6.83
2018-06-10T12:54:55.158Z,6.30
2018-06-10T12:57:23.778Z,7.70
2018-06-10T12:59:56.028Z,7.00
2018-06-10T13:02:24.585Z,6.43
2018-06-10T13:04:53.239Z,7.00
2018-06-10T13:07:22.768Z,6.33
2018-06-10T13:09:55.366Z,5.70
2018-06-10T13:12:24.129Z,5.40
2018-06-10T13:14:52.774Z,5.57
2018-06-10T13:17:21.416Z,6.10
2018-06-10T13:19:50.098Z,5.73
2018-06-10T13:22:18.751Z,5.80
2018-06-10T13:24:47.397Z,5.30
2018-06-10T13:27:16.061Z,5.07
2018-06-10T13:29:44.704Z,5.90
2018-06-10T13:32:13.354Z,6.80
2018-06-10T13:34:41.967Z,6.27
2018-06-10T13:37:10.597Z,6.13
2018-06-10T13:39:43.583Z,6.63
2018-06-10T13:42:12.261Z,6.67
2018-06-10T13:44:40.856Z,6.17
2018-06-10T13:47:09.564Z,6.10
2018-06-10T13:49:38.182Z,6.70
2018-06-10T13:52:06.853Z,6.27
2018-06-10T13:54:35.574Z,6.73
2018-06-10T13:57:04.226Z,5.50
2018-06-10T13:59:32.923Z,7.00
2018-06-10T14:02:01.765Z,6.00
2018-06-10T14:04:30.421Z,5.93
2018-06-10T14:06:59.057Z,5.70
2018-06-10T14:09:27.703Z,6.30
2018-06-10T14:11:57.939Z,6.20
2018-06-10T14:14:26.555Z,7.10
2018-06-10T14:16:55.183Z,6.40
2018-06-10T14:19:23.833Z,6.20
2018-06-10T14:21:52.480Z,6.60
2018-06-10T14:24:21.102Z,7.73
2018-06-10T14:26:49.765Z,6.27
2018-06-10T14:29:18.386Z,6.43
2018-06-10T14:31:48.062Z,6.53
2018-06-10T14:34:16.742Z,7.07
2018-06-10T14:36:45.363Z,6.13
2018-06-10T14:39:14.047Z,7.13
2018-06-10T14:41:42.781Z,7.23
2018-06-10T14:44:11.570Z,6.70
2018-06-10T14:46:40.226Z,7.80
2018-06-10T14:49:08.881Z,6.00
2018-06-10T14:51:37.511Z,5.80
2018-06-10T14:54:06.118Z,5.07
2018-06-10T14:56:34.763Z,5.03
2018-06-10T14:59:03.421Z,6.50
2018-06-10T15:01:32.039Z,4.60
2018-06-10T15:04:00.808Z,5.30
2018-06-10T15:06:29.677Z,4.97
2018-06-10T15:08:58.370Z,4.90
2018-06-10T15:11:27.077Z,3.87
2018-06-10T15:13:56.097Z,4.35
2018-06-10T15:16:24.738Z,4.62
2018-06-10T15:18:54.000Z,4.35
2018-06-10T15:21:22.998Z,3.92
2018-06-10T15:23:51.799Z,4.85
2018-06-10T15:26:23.787Z,3.50
2018-06-10T15:28:53.191Z,3.05
2018-06-10T15:31:21.907Z,3.58
2018-06-10T15:33:50.507Z,3.50
2018-06-10T15:36:20.176Z,3.25
2018-06-10T15:38:48.819Z,3.40
2018-06-10T15:41:17.493Z,4.00
2018-06-10T15:43:46.509Z,3.58
2018-06-10T15:46:15.156Z,3.47
2018-06-10T15:48:43.853Z,3.05
2018-06-10T15:51:12.534Z,4.50
2018-06-10T15:53:41.290Z,4.67
2018-06-10T15:56:09.915Z,5.10
2018-06-10T15:58:38.968Z,4.50
2018-06-10T16:01:08.256Z,4.37
2018-06-10T16:03:38.219Z,4.43
2018-06-10T16:06:07.001Z,5.17
2018-06-10T16:08:35.812Z,6.03
2018-06-10T16:11:05.227Z,6.60
2018-06-10T16:13:33.965Z,5.33
2018-06-10T16:16:02.710Z,5.40
2018-06-10T16:18:31.479Z,5.47
2018-06-10T16:21:00.258Z,6.20
2018-06-10T16:23:29.062Z,6.30
2018-06-10T16:25:58.799Z,5.70
2018-06-10T16:28:28.532Z,7.10
2018-06-10T16:30:57.326Z,6.07
2018-06-10T16:33:26.230Z,6.53
2018-06-10T16:35:54.984Z,6.43
2018-06-10T16:38:23.694Z,6.30
2018-06-10T16:40:52.519Z,6.97
2018-06-10T16:43:21.306Z,5.27
2018-06-10T16:45:50.080Z,7.07
2018-06-10T16:48:18.805Z,6.90
2018-06-10T16:50:47.605Z,7.67
2018-06-10T16:53:16.331Z,7.97
2018-06-10T16:55:45.040Z,7.27
2018-06-10T16:58:13.866Z,6.80
2018-06-10T17:00:42.695Z,6.53
2018-06-10T17:03:11.382Z,6.03
2018-06-10T17:05:40.106Z,6.43
2018-06-10T17:08:08.936Z,8.23
2018-06-10T17:10:37.586Z,7.50
2018-06-10T17:13:06.251Z,7.23
2018-06-10T17:15:34.930Z,7.53
2018-06-10T17:18:04.155Z,7.70
2018-06-10T17:20:32.920Z,8.90
2018-06-10T17:23:01.595Z,7.33
2018-06-10T17:25:30.242Z,7.77
2018-06-10T17:27:58.988Z,7.00
2018-06-10T17:30:28.928Z,7.53
2018-06-10T17:32:57.589Z,7.77
2018-06-10T17:35:26.255Z,6.53
2018-06-10T17:37:54.948Z,8.40
2018-06-10T17:40:23.546Z,6.67
2018-06-10T17:42:52.209Z,8.20
2018-06-10T17:45:20.894Z,6.60
2018-06-10T17:47:49.556Z,6.53
2018-06-10T17:50:18.261Z,6.30
2018-06-10T17:52:47.003Z,6.90
2018-06-10T17:55:15.745Z,6.33
2018-06-10T17:57:44.357Z,6.47
2018-06-10T18:00:13.026Z,6.43
2018-06-10T18:02:41.715Z,6.90
2018-06-10T18:05:10.406Z,7.17
2018-06-10T18:07:39.040Z,9.03
2018-06-10T18:10:07.822Z,7.80
2018-06-10T18:12:36.637Z,7.60
2018-06-10T18:15:05.372Z,8.10
2018-06-10T18:17:34.078Z,7.50
2018-06-10T18:20:03.146Z,7.60
2018-06-10T18:22:31.835Z,7.50
2018-06-10T18:25:00.503Z,7.33
2018-06-10T18:27:29.190Z,8.40
2018-06-10T18:29:57.870Z,7.37
2018-06-10T18:32:26.539Z,8.10
2018-06-10T18:34:55.181Z,8.40
2018-06-10T18:37:24.563Z,6.93
2018-06-10T18:39:53.260Z,8.13
2018-06-10T18:42:21.902Z,8.30
2018-06-10T18:44:50.610Z,9.60
2018-06-10T18:47:19.344Z,8.70
2018-06-10T18:49:48.047Z,9.40
2018-06-10T18:52:16.711Z,8.30
2018-06-10T18:54:45.366Z,8.60
2018-06-10T18:57:14.056Z,9.03
2018-06-10T18:59:42.762Z,8.10
2018-06-10T19:02:11.481Z,9.10
2018-06-10T19:04:40.286Z,8.90
2018-06-10T19:07:09.002Z,8.67
2018-06-10T19:09:37.739Z,8.77
2018-06-10T19:12:06.523Z,8.93
2018-06-10T19:14:35.291Z,9.07
2018-06-10T19:17:04.136Z,8.37
2018-06-10T19:19:32.792Z,9.07
2018-06-10T19:22:01.576Z,9.10
2018-06-10T19:24:30.232Z,9.50
2018-06-10T19:26:58.923Z,8.80
2018-06-10T19:29:27.606Z,9.60
2018-06-10T19:31:56.274Z,8.90
2018-06-10T19:34:25.469Z,9.70
2018-06-10T19:36:54.229Z,9.07
2018-06-10T19:39:22.931Z,8.20
2018-06-10T19:41:51.611Z,9.40
2018-06-10T19:44:20.299Z,8.73
2018-06-10T19:46:49.035Z,9.83
2018-06-10T19:49:17.703Z,8.93
2018-06-10T19:51:46.431Z,9.17
2018-06-10T19:54:15.726Z,9.67
2018-06-10T19:56:44.457Z,10.77
2018-06-10T19:59:13.205Z,9.07
2018-06-10T20:01:41.886Z,9.90
2018-06-10T20:04:10.578Z,10.33
2018-06-10T20:06:39.330Z,10.10
2018-06-10T20:09:08.423Z,9.50
2018-06-10T20:11:37.090Z,9.53
2018-06-10T20:14:05.748Z,9.37
2018-06-10T20:16:34.461Z,9.43
2018-06-10T20:19:03.156Z,9.70
2018-06-10T20:21:31.862Z,10.20
2018-06-10T20:24:00.660Z,10.60
2018-06-10T20:26:29.364Z,9.93
2018-06-10T20:28:58.099Z,10.57
2018-06-10T20:31:26.875Z,10.77
2018-06-10T20:33:56.145Z,11.00
2018-06-10T20:36:24.897Z,10.80
2018-06-10T20:38:53.501Z,10.10
2018-06-10T20:41:22.142Z,10.23
2018-06-10T20:43:51.465Z,11.57
2018-06-10T20:46:21.758Z,12.40
2018-06-10T20:48:50.389Z,11.40
2018-06-10T20:51:19.623Z,11.70
2018-06-10T20:53:48.279Z,13.60
2018-06-10T20:56:16.925Z,13.23
2018-06-10T20:58:45.556Z,13.73
2018-06-10T21:01:14.193Z,13.47
2018-06-10T21:03:42.831Z,13.47
2018-06-10T21:06:11.448Z,13.30
2018-06-10T21:08:40.109Z,13.83
2018-06-10T21:11:08.777Z,14.70
2018-06-10T21:13:37.407Z,14.60
2018-06-10T21:16:06.083Z,13.23
2018-06-10T21:18:34.706Z,15.03
2018-06-10T21:21:03.366Z,14.53
2018-06-10T21:23:32.048Z,15.77
2018-06-10T21:26:00.637Z,14.83
2018-06-10T21:28:29.239Z,13.23
2018-06-10T21:30:57.851Z,14.90
2018-06-10T21:33:26.503Z,16.10
2018-06-10T21:35:55.137Z,14.07
2018-06-10T21:38:24.162Z,14.40
2018-06-10T21:40:52.816Z,14.73
2018-06-10T21:43:21.441Z,14.77
2018-06-10T21:45:50.057Z,15.00
2018-06-10T21:48:18.741Z,16.33
2018-06-10T21:50:47.336Z,15.30
2018-06-10T21:53:15.987Z,16.50
2018-06-10T21:55:44.662Z,16.00
2018-06-10T21:58:13.286Z,17.37
2018-06-10T22:00:42.016Z,17.20
2018-06-10T22:03:10.648Z,15.93
2018-06-10T22:05:39.263Z,15.40
2018-06-10T22:08:07.892Z,14.57
2018-06-10T22:10:36.568Z,16.23
2018-06-10T22:13:05.173Z,14.70
2018-06-10T22:15:33.790Z,14.73
2018-06-10T22:18:02.446Z,14.70
2018-06-10T22:20:31.047Z,13.67
2018-06-10T22:22:59.639Z,13.43
2018-06-10T22:25:28.359Z,14.50
2018-06-10T22:27:56.977Z,13.80
2018-06-10T22:30:25.604Z,14.27
2018-06-10T22:32:54.249Z,13.03
2018-06-10T22:35:22.879Z,13.57
2018-06-10T22:37:51.473Z,14.93
2018-06-10T22:40:20.169Z,13.23
2018-06-10T22:42:48.746Z,14.80
2018-06-10T22:45:17.329Z,14.77
2018-06-10T22:47:45.953Z,14.47
2018-06-10T22:50:14.713Z,13.30
2018-06-10T22:52:43.488Z,12.10
2018-06-10T22:55:12.824Z,13.43
2018-06-10T22:57:41.412Z,13.50
2018-06-10T23:00:10.034Z,12.97
2018-06-10T23:02:38.625Z,13.73
2018-06-10T23:05:07.252Z,13.67
2018-06-10T23:07:35.862Z,13.50
2018-06-10T23:10:04.521Z,13.27
2018-06-10T23:12:33.094Z,13.67
2018-06-10T23:15:01.660Z,13.10
2018-06-10T23:17:30.307Z,13.33
2018-06-10T23:19:58.882Z,14.60
2018-06-10T23:22:27.481Z,13.40
2018-06-10T23:24:56.074Z,13.50
2018-06-10T23:27:24.661Z,14.40
2018-06-10T23:29:53.312Z,13.40
2018-06-10T23:32:21.979Z,12.33
2018-06-10T23:34:50.559Z,14.80
2018-06-10T23:37:19.130Z,14.00
2018-06-10T23:39:47.685Z,13.80
2018-06-10T23:42:16.261Z,13.73
2018-06-10T23:44:44.845Z,15.83
2018-06-10T23:47:13.404Z,15.87
2018-06-10T23:49:42.009Z,16.00
2018-06-10T23:52:10.585Z,15.30
2018-06-10T23:54:39.154Z,16.30
2018-06-10T23:57:07.741Z,15.97
2018-06-10T23:59:36.315Z,16.20
